CST,Max TemperatureF,Mean TemperatureF,Min TemperatureF,Max Dew PointF,MeanDew PointF,Min DewpointF,Max Humidity, Mean Humidity, Min Humidity, Max Sea Level PressureIn, Mean Sea Level PressureIn, Min Sea Level PressureIn, Max VisibilityMiles, Mean VisibilityMiles, Min VisibilityMiles, Max Wind SpeedMPH, Mean Wind SpeedMPH, Max Gust SpeedMPH,PrecipitationIn, CloudCover, Events, WindDirDegrees
2013-1-1,20,1,-18,16,-1,-22,84,75,66,30.36,30.23,30.07,10,10,8,14,5,17,T,6,,188
2013-1-2,22,19,16,18,15,11,92,82,71,30.15,29.99,29.90,10,5,0,18,8,22,0.05,8,Fog-Snow,205
2013-1-3,17,12,6,10,5,0,91,76,61,30.33,30.23,30.08,10,9,3,18,11,22,T,4,Snow,273
2013-1-4,29,17,5,16,11,0,88,74,60,30.18,30.12,30.05,10,10,8,14,5,17,0.00,0,,230
2013-1-5,20,10,-1,14,7,-2,95,81,67,30.13,30.03,29.92,10,7,2,13,4,16,0.00,1,,323
2013-1-6,21,14,7,14,8,3,92,80,67,30.28,30.16,30.00,10,10,8,15,8,18,0.00,2,,264
2013-1-7,36,25,13,24,18,11,88,74,59,30.01,29.94,29.83,10,8,0,15,7,18,0.00,0,Fog,204
2013-1-8,33,19,4,26,16,1,96,84,72,30.01,29.89,29.73,10,6,0,18,6,23,0.00,3,Fog,179
2013-1-9,34,26,17,25,19,13,84,71,58,30.37,30.18,29.91,10,10,9,29,12,39,0.00,1,,248
2013-1-10,39,31,23,32,26,18,96,77,49,30.30,29.98,29.68,10,7,2,20,11,26,0.14,4,Rain,148
2013-1-11,36,35,33,36,34,32,100,96,92,29.71,29.48,29.32,10,2,0,15,8,20,0.06,8,Fog-Rain-Snow,156
2013-1-12,34,18,1,32,5,-7,100,82,63,30.14,29.82,29.39,10,9,2,28,16,33,T,5,Snow,271
2013-1-13,7,3,-2,-1,-5,-8,79,74,68,30.30,30.20,30.13,10,9,2,12,7,15,T,4,Snow,295
2013-1-14,10,3,-4,3,-2,-8,87,75,63,30.48,30.40,30.32,10,10,9,13,6,15,T,2,,219
2013-1-15,24,13,2,13,7,-1,88,71,54,30.31,30.14,29.80,10,10,8,17,8,39,0.00,2,,193
2013-1-16,33,19,5,28,15,-7,92,64,36,30.32,29.85,29.60,10,10,6,22,12,28,T,5,,278
2013-1-17,18,11,3,7,0,-8,73,64,55,30.46,30.40,30.34,10,9,2,13,5,17,T,5,Snow,259
2013-1-18,38,26,14,26,16,7,96,80,64,30.30,29.97,29.77,10,8,1,14,6,18,0.03,4,Snow,145
2013-1-19,37,18,-2,28,11,-10,96,79,61,30.32,29.89,29.66,10,8,0,38,16,46,0.00,3,Fog,283
2013-1-20,5,0,-6,-2,-9,-15,72,65,58,30.49,30.37,30.25,10,8,1,21,12,25,T,4,Snow,298
2013-1-21,-6,-10,-14,-16,-19,-23,78,65,52,30.44,30.39,30.27,10,10,10,23,12,28,T,0,,294
2013-1-22,2,-8,-18,-6,-15,-23,81,69,56,30.48,30.42,30.32,10,10,10,10,5,13,0.00,2,,239
2013-1-23,12,2,-9,2,-7,-19,86,68,49,30.72,30.38,30.18,10,10,5,28,9,36,T,4,Snow,325
2013-1-24,11,1,-10,0,-11,-20,69,63,57,30.76,30.55,30.21,10,10,10,16,7,23,0.00,4,,120
2013-1-25,16,7,-2,9,1,-8,73,67,61,30.40,30.14,29.89,10,10,9,25,12,32,T,4,Snow,280
2013-1-26,21,7,-7,10,-1,-12,82,68,54,30.41,30.31,30.15,10,10,10,16,5,18,0.00,3,,125
2013-1-27,32,26,19,28,22,10,92,75,58,30.14,29.91,29.79,10,5,1,9,6,13,0.10,6,Snow,94
2013-1-28,34,31,27,33,29,25,100,93,85,29.91,29.81,29.65,3,2,0,13,4,16,0.05,8,Fog-Rain-Snow,129
2013-1-29,34,30,25,30,28,16,100,86,72,29.83,29.65,29.52,10,6,2,20,8,26,0.01,8,Rain-Snow,331
2013-1-30,25,15,5,18,8,-3,81,74,66,29.84,29.76,29.68,10,10,4,23,16,30,T,8,Snow,327
2013-1-31,6,-2,-11,0,-10,-20,75,66,56,30.36,30.08,29.75,10,8,2,28,18,31,T,5,Snow,307